createdAt,value
2023-09-20T00:02:14.665Z,12.10
2023-09-20T00:04:44.129Z,12.10
2023-09-20T00:07:12.429Z,12.10
2023-09-20T00:09:40.205Z,12.10
2023-09-20T00:12:08.322Z,12.10
2023-09-20T00:14:36.103Z,12.00
2023-09-20T00:17:03.927Z,12.00
2023-09-20T00:19:31.780Z,11.80
2023-09-20T00:21:59.288Z,11.90
2023-09-20T00:24:26.954Z,11.90
2023-09-20T00:26:54.601Z,11.90
2023-09-20T00:29:22.046Z,11.80
2023-09-20T00:31:50.474Z,11.70
2023-09-20T00:34:18.684Z,11.60
2023-09-20T00:36:46.192Z,11.50
2023-09-20T00:39:14.775Z,11.40
2023-09-20T00:41:42.841Z,11.20
2023-09-20T00:44:10.399Z,11.10
2023-09-20T00:46:40.116Z,11.10
2023-09-20T00:49:08.008Z,11.10
2023-09-20T00:51:35.472Z,11.00
2023-09-20T00:54:05.633Z,11.00
2023-09-20T00:56:34.650Z,10.90
2023-09-20T00:59:08.441Z,11.00
2023-09-20T01:01:38.578Z,11.00
2023-09-20T01:04:10.338Z,11.10
2023-09-20T01:06:39.292Z,11.10
2023-09-20T01:09:07.772Z,11.00
2023-09-20T01:11:37.832Z,11.00
2023-09-20T01:14:06.101Z,10.90
2023-09-20T01:16:34.691Z,11.00
2023-09-20T01:19:06.825Z,10.90
2023-09-20T01:21:47.980Z,10.90
2023-09-20T01:24:18.729Z,10.90
2023-09-20T01:26:49.493Z,11.00
2023-09-20T01:29:16.818Z,11.00
2023-09-20T01:31:44.233Z,11.00
2023-09-20T01:34:11.782Z,11.00
2023-09-20T01:36:39.442Z,11.00
2023-09-20T01:39:10.805Z,11.00
2023-09-20T01:41:38.577Z,11.00
2023-09-20T01:44:06.357Z,10.90
2023-09-20T01:46:34.818Z,10.90
2023-09-20T01:49:02.778Z,10.90
2023-09-20T01:51:30.835Z,10.90
2023-09-20T01:53:58.107Z,10.80
2023-09-20T01:56:31.221Z,10.80
2023-09-20T01:58:59.135Z,10.70
2023-09-20T02:01:26.725Z,10.70
2023-09-20T02:03:54.180Z,10.70
2023-09-20T02:06:23.268Z,10.70
2023-09-20T02:08:50.764Z,10.70
2023-09-20T02:11:19.228Z,10.60
2023-09-20T02:13:46.790Z,10.70
2023-09-20T02:16:14.023Z,10.70
2023-09-20T02:18:41.490Z,10.60
2023-09-20T02:21:11.285Z,10.50
2023-09-20T02:23:38.736Z,10.50
2023-09-20T02:26:06.297Z,10.60
2023-09-20T02:28:35.509Z,10.50
2023-09-20T02:31:03.179Z,10.50
2023-09-20T02:33:31.645Z,10.50
2023-09-20T02:35:58.944Z,10.40
2023-09-20T02:38:29.783Z,10.50
2023-09-20T02:41:00.756Z,10.50
2023-09-20T02:43:30.322Z,10.40
2023-09-20T02:46:01.256Z,10.40
2023-09-20T02:48:29.552Z,10.50
2023-09-20T02:51:01.120Z,10.40
2023-09-20T02:53:28.697Z,10.40
2023-09-20T02:55:57.582Z,10.40
2023-09-20T02:58:25.177Z,10.40
2023-09-20T03:00:52.429Z,10.30
2023-09-20T03:03:20.570Z,10.30
2023-09-20T03:05:48.088Z,10.30
2023-09-20T03:08:15.588Z,10.30
2023-09-20T03:10:43.088Z,10.20
2023-09-20T03:13:18.631Z,10.20
2023-09-20T03:15:47.101Z,10.30
2023-09-20T03:18:15.955Z,10.30
2023-09-20T03:20:46.271Z,10.30
2023-09-20T03:23:14.611Z,10.40
2023-09-20T03:25:42.510Z,10.40
2023-09-20T03:28:11.418Z,10.50
2023-09-20T03:30:40.876Z,10.50
2023-09-20T03:33:11.008Z,10.50
2023-09-20T03:35:39.746Z,10.60
2023-09-20T03:38:07.319Z,10.50
2023-09-20T03:40:34.747Z,10.60
2023-09-20T03:43:04.739Z,10.70
2023-09-20T03:45:32.266Z,10.70
2023-09-20T03:47:59.620Z,10.70
2023-09-20T03:50:27.558Z,10.70
2023-09-20T03:52:55.368Z,10.70
2023-09-20T03:55:24.689Z,10.70
2023-09-20T03:57:52.499Z,10.70
2023-09-20T04:00:26.329Z,10.70
2023-09-20T04:02:57.090Z,10.70
2023-09-20T04:05:43.503Z,10.80
2023-09-20T04:08:13.212Z,10.80
2023-09-20T04:10:42.878Z,10.80
2023-09-20T04:13:10.807Z,10.80
2023-09-20T04:15:42.549Z,10.90
2023-09-20T04:18:10.983Z,10.90
2023-09-20T04:20:40.076Z,10.90
2023-09-20T04:23:08.028Z,11.00
2023-09-20T04:25:35.611Z,11.00
2023-09-20T04:28:02.926Z,11.00
2023-09-20T04:30:32.425Z,11.00
2023-09-20T04:33:00.167Z,11.00
2023-09-20T04:35:27.839Z,11.00
2023-09-20T04:37:56.705Z,11.10
2023-09-20T04:40:24.829Z,11.10
2023-09-20T04:42:52.077Z,11.20
2023-09-20T04:45:21.354Z,11.30
2023-09-20T04:47:48.859Z,11.30
2023-09-20T04:50:18.107Z,11.30
2023-09-20T04:52:46.666Z,11.40
2023-09-20T04:55:14.029Z,11.40
2023-09-20T04:57:41.310Z,11.40
2023-09-20T05:00:10.321Z,11.40
2023-09-20T05:02:37.764Z,11.40
2023-09-20T05:05:06.580Z,11.40
2023-09-20T05:07:35.489Z,11.40
2023-09-20T05:10:03.181Z,11.50
2023-09-20T05:12:30.655Z,11.50
2023-09-20T05:14:58.125Z,11.50
2023-09-20T05:17:25.662Z,11.50
2023-09-20T05:19:53.328Z,11.50
2023-09-20T05:22:20.841Z,11.60
2023-09-20T05:24:48.389Z,11.70
2023-09-20T05:27:16.093Z,11.70
2023-09-20T05:29:43.489Z,11.70
2023-09-20T05:32:12.045Z,11.80
2023-09-20T05:34:40.837Z,11.80
2023-09-20T05:37:08.228Z,11.80
2023-09-20T05:39:36.353Z,11.80
2023-09-20T05:42:04.609Z,11.80
2023-09-20T05:44:32.921Z,11.80
2023-09-20T05:47:00.523Z,11.90
2023-09-20T05:49:27.867Z,12.00
2023-09-20T05:51:55.071Z,12.00
2023-09-20T05:54:22.841Z,11.90
2023-09-20T05:56:52.404Z,11.90
2023-09-20T05:59:20.116Z,12.00
2023-09-20T06:01:47.313Z,11.90
2023-09-20T06:04:15.404Z,12.00
2023-09-20T06:06:42.953Z,12.10
2023-09-20T06:09:10.531Z,12.10
2023-09-20T06:11:38.476Z,12.20
2023-09-20T06:14:06.582Z,12.10
2023-09-20T06:16:34.503Z,12.20
2023-09-20T06:19:06.990Z,12.30
2023-09-20T06:21:38.143Z,12.30
2023-09-20T06:24:11.568Z,12.30
2023-09-20T06:26:42.434Z,12.30
2023-09-20T06:29:11.286Z,12.30
2023-09-20T06:31:38.659Z,12.30
2023-09-20T06:34:07.182Z,12.30
2023-09-20T06:36:34.819Z,12.30
2023-09-20T06:39:02.472Z,12.30
2023-09-20T06:41:30.003Z,12.30
2023-09-20T06:44:00.431Z,12.40
2023-09-20T06:46:27.825Z,12.40
2023-09-20T06:48:59.289Z,12.40
2023-09-20T06:51:26.719Z,12.30
2023-09-20T06:53:53.897Z,12.30
2023-09-20T06:56:22.283Z,12.40
2023-09-20T06:58:49.613Z,12.40
2023-09-20T07:01:16.820Z,12.40
2023-09-20T07:03:44.346Z,12.30
2023-09-20T07:06:11.811Z,12.20
2023-09-20T07:08:39.467Z,12.20
2023-09-20T07:11:07.739Z,12.30
2023-09-20T07:13:35.106Z,12.30
2023-09-20T07:16:06.996Z,12.20
2023-09-20T07:18:34.982Z,12.10
2023-09-20T07:21:03.716Z,12.20
2023-09-20T07:23:31.634Z,12.30
2023-09-20T07:25:59.710Z,12.30
2023-09-20T07:28:27.183Z,12.30
2023-09-20T07:30:56.945Z,12.50
2023-09-20T07:33:26.430Z,12.50
2023-09-20T07:36:00.818Z,12.80
2023-09-20T07:38:34.105Z,13.10
2023-09-20T07:41:19.496Z,13.40
2023-09-20T07:43:48.759Z,13.70
2023-09-20T07:46:16.990Z,14.00
2023-09-20T07:48:52.348Z,14.20
2023-09-20T07:51:27.029Z,14.30
2023-09-20T07:53:57.765Z,14.30
2023-09-20T07:56:26.370Z,14.10
2023-09-20T07:58:55.519Z,14.00
2023-09-20T08:01:26.326Z,13.90
2023-09-20T08:04:01.522Z,13.90
2023-09-20T08:06:35.022Z,13.90
2023-09-20T08:09:03.851Z,13.90
2023-09-20T08:11:32.670Z,14.30
2023-09-20T08:14:02.933Z,14.40
2023-09-20T08:16:58.695Z,14.50
2023-09-20T08:19:22.230Z,14.70
2023-09-20T08:21:50.597Z,14.80
2023-09-20T08:24:37.082Z,15.00
2023-09-20T08:27:22.932Z,15.10
2023-09-20T08:30:09.139Z,15.20
2023-09-20T08:32:55.367Z,14.70
2023-09-20T08:35:41.698Z,14.90
2023-09-20T08:38:27.490Z,15.00
2023-09-20T08:41:13.469Z,15.10
2023-09-20T08:43:59.436Z,15.60
2023-09-20T08:46:46.689Z,15.90
2023-09-20T08:49:33.340Z,15.90
2023-09-20T08:52:18.884Z,15.80
2023-09-20T08:55:07.379Z,16.20
2023-09-20T08:57:54.552Z,16.50
2023-09-20T09:00:32.439Z,17.20
2023-09-20T09:03:05.381Z,16.60
2023-09-20T09:05:33.926Z,16.60
2023-09-20T09:08:03.693Z,16.50
2023-09-20T09:10:32.388Z,16.30
2023-09-20T09:12:59.905Z,16.10
2023-09-20T09:15:29.622Z,15.70
2023-09-20T09:17:57.429Z,15.80
2023-09-20T09:20:25.670Z,15.70
2023-09-20T09:22:53.800Z,16.00
2023-09-20T09:25:26.976Z,15.90
2023-09-20T09:27:54.825Z,16.20
2023-09-20T09:30:23.141Z,16.30
2023-09-20T09:32:51.749Z,16.40
2023-09-20T09:37:52.105Z,16.80
2023-09-20T09:40:20.504Z,16.50
2023-09-20T09:42:51.974Z,16.20
2023-09-20T09:45:47.995Z,16.40
2023-09-20T09:48:17.763Z,16.50
2023-09-20T09:50:50.067Z,16.40
2023-09-20T09:53:22.734Z,16.40
2023-09-20T09:55:51.738Z,16.50
2023-09-20T09:58:19.656Z,16.40
2023-09-20T10:00:51.499Z,16.50
2023-09-20T10:03:31.731Z,16.50
2023-09-20T10:06:08.548Z,16.70
2023-09-20T10:08:48.077Z,16.80
2023-09-20T10:11:17.005Z,17.20
2023-09-20T10:13:45.839Z,17.10
2023-09-20T10:16:14.393Z,17.00
2023-09-20T10:19:01.476Z,16.60
2023-09-20T10:21:34.087Z,16.70
2023-09-20T10:24:09.963Z,16.70
2023-09-20T10:26:41.677Z,16.90
2023-09-20T10:29:28.855Z,17.10
2023-09-20T10:32:07.831Z,17.10
2023-09-20T10:34:42.073Z,17.20
2023-09-20T10:37:12.407Z,17.00
2023-09-20T10:39:48.190Z,17.20
2023-09-20T10:42:18.276Z,16.90
2023-09-20T10:44:45.855Z,17.00
2023-09-20T10:47:18.003Z,17.00
2023-09-20T10:49:56.968Z,17.10
2023-09-20T10:52:38.668Z,17.00
2023-09-20T10:55:19.959Z,17.10
2023-09-20T10:57:48.093Z,17.00
2023-09-20T11:00:15.768Z,17.10
2023-09-20T11:02:44.104Z,17.10
2023-09-20T11:05:15.853Z,17.10
2023-09-20T11:07:44.831Z,16.90
2023-09-20T11:10:12.586Z,16.90
2023-09-20T11:12:44.442Z,16.90
2023-09-20T11:15:12.203Z,17.10
2023-09-20T11:17:40.053Z,17.10
2023-09-20T11:20:13.467Z,17.00
2023-09-20T11:22:42.875Z,17.00
2023-09-20T11:25:10.421Z,17.00
2023-09-20T11:27:39.552Z,17.00
2023-09-20T11:30:12.413Z,17.00
2023-09-20T11:32:41.483Z,17.00
2023-09-20T11:35:09.731Z,16.80
2023-09-20T11:37:37.644Z,16.90
2023-09-20T11:40:07.207Z,17.10
2023-09-20T11:42:38.444Z,17.50
2023-09-20T11:45:38.877Z,17.70
2023-09-20T11:47:57.496Z,17.80
2023-09-20T11:50:26.627Z,17.90
2023-09-20T11:52:55.248Z,17.50
2023-09-20T11:55:23.671Z,17.50
2023-09-20T11:57:52.405Z,17.40
2023-09-20T12:00:26.030Z,17.40
2023-09-20T12:02:55.188Z,17.70
2023-09-20T12:05:25.725Z,17.70
2023-09-20T12:08:01.984Z,17.70
2023-09-20T12:10:31.322Z,17.80
2023-09-20T12:12:59.583Z,17.70
2023-09-20T12:15:27.314Z,17.70
2023-09-20T12:17:57.423Z,17.50
2023-09-20T12:20:26.426Z,17.50
2023-09-20T12:23:04.985Z,17.40
2023-09-20T12:25:32.894Z,17.50
2023-09-20T12:28:00.983Z,17.20
2023-09-20T12:30:30.192Z,17.20
2023-09-20T12:32:59.272Z,17.30
2023-09-20T12:35:28.488Z,17.30
2023-09-20T12:37:56.206Z,17.30
2023-09-20T12:40:25.785Z,17.20
2023-09-20T12:42:53.297Z,17.20
2023-09-20T12:45:21.749Z,17.00
2023-09-20T12:47:50.702Z,17.00
2023-09-20T12:50:19.446Z,16.80
2023-09-20T12:52:50.126Z,17.00
2023-09-20T12:55:18.543Z,16.90
2023-09-20T12:57:48.250Z,16.90
2023-09-20T13:00:29.810Z,17.00
2023-09-20T13:03:08.584Z,17.20
2023-09-20T13:05:38.256Z,17.40
2023-09-20T13:08:09.070Z,17.40
2023-09-20T13:10:36.304Z,17.30
2023-09-20T13:13:10.163Z,17.60
2023-09-20T13:15:43.672Z,17.70
2023-09-20T13:18:12.589Z,18.00
2023-09-20T13:20:43.717Z,18.00
2023-09-20T13:23:12.122Z,17.90
2023-09-20T13:25:43.087Z,17.80
2023-09-20T13:28:10.746Z,17.50
2023-09-20T13:30:41.746Z,17.30
2023-09-20T13:33:16.520Z,16.90
2023-09-20T13:35:44.358Z,16.60
2023-09-20T13:38:15.041Z,16.70
2023-09-20T13:40:44.124Z,16.70
2023-09-20T13:43:13.031Z,16.70
2023-09-20T13:45:42.860Z,16.90
2023-09-20T13:48:13.357Z,16.90
2023-09-20T13:50:45.261Z,17.10
2023-09-20T13:53:13.613Z,17.10
2023-09-20T13:55:41.132Z,17.20
2023-09-20T13:58:08.953Z,17.10
2023-09-20T14:00:38.755Z,17.10
2023-09-20T14:03:07.023Z,17.20
2023-09-20T14:05:34.438Z,17.10
2023-09-20T14:08:02.087Z,17.10
2023-09-20T14:10:33.344Z,17.20
2023-09-20T14:13:01.016Z,17.20
2023-09-20T14:15:31.712Z,17.30
2023-09-20T14:18:02.516Z,17.20
2023-09-20T14:20:30.097Z,17.20
2023-09-20T14:22:57.966Z,17.10
2023-09-20T14:25:27.534Z,17.20
2023-09-20T14:27:57.590Z,17.20
2023-09-20T14:30:25.513Z,17.30
2023-09-20T14:32:57.402Z,17.30
2023-09-20T14:35:25.960Z,17.40
2023-09-20T14:37:55.851Z,17.50
2023-09-20T14:40:25.951Z,17.60
2023-09-20T14:42:59.001Z,17.60
2023-09-20T14:45:31.863Z,17.80
2023-09-20T14:48:01.976Z,17.80
2023-09-20T14:50:30.328Z,17.80
2023-09-20T14:53:01.253Z,17.90
2023-09-20T14:55:30.335Z,17.90
2023-09-20T14:57:59.604Z,17.90
2023-09-20T15:00:30.980Z,17.90
2023-09-20T15:03:02.809Z,17.80
2023-09-20T15:05:30.634Z,17.90
2023-09-20T15:07:59.414Z,17.70
2023-09-20T15:10:28.093Z,17.70
2023-09-20T15:13:00.323Z,17.70
2023-09-20T15:15:29.230Z,17.70
2023-09-20T15:17:57.262Z,17.70
2023-09-20T15:20:27.410Z,17.60
2023-09-20T15:22:56.672Z,17.60
2023-09-20T15:25:26.769Z,17.70
2023-09-20T15:27:57.710Z,17.70
2023-09-20T15:30:26.329Z,17.60
2023-09-20T15:32:54.160Z,17.60
2023-09-20T15:35:22.275Z,17.60
2023-09-20T15:37:49.690Z,17.60
2023-09-20T15:40:18.653Z,17.30
2023-09-20T15:42:47.949Z,17.30
2023-09-20T15:45:20.639Z,17.40
2023-09-20T15:47:48.767Z,17.40
2023-09-20T15:50:16.768Z,17.40
2023-09-20T15:52:44.140Z,17.40
2023-09-20T15:55:17.112Z,17.30
2023-09-20T15:57:47.589Z,17.30
2023-09-20T16:00:17.548Z,17.30
2023-09-20T16:02:46.393Z,17.30
2023-09-20T16:05:17.665Z,17.20
2023-09-20T16:07:45.533Z,17.20
2023-09-20T16:10:19.326Z,17.10
2023-09-20T16:12:47.911Z,17.20
2023-09-20T16:15:17.712Z,17.20
2023-09-20T16:17:46.155Z,17.20
2023-09-20T16:20:16.214Z,17.20
2023-09-20T16:22:45.553Z,17.20
2023-09-20T16:25:16.035Z,17.00
2023-09-20T16:27:43.859Z,16.90
2023-09-20T16:30:13.601Z,17.00
2023-09-20T16:32:44.752Z,16.90
2023-09-20T16:35:12.990Z,16.90
2023-09-20T16:37:40.413Z,16.90
2023-09-20T16:40:09.306Z,16.80
2023-09-20T16:42:36.680Z,16.70
2023-09-20T16:45:04.518Z,16.70
2023-09-20T16:47:32.107Z,16.70
2023-09-20T16:49:59.697Z,16.70
2023-09-20T16:52:27.378Z,16.60
2023-09-20T16:54:54.596Z,16.60
2023-09-20T16:57:23.769Z,16.50
2023-09-20T16:59:54.015Z,16.50
2023-09-20T17:02:25.738Z,16.50
2023-09-20T17:04:53.564Z,16.40
2023-09-20T17:07:21.087Z,16.40
2023-09-20T17:09:49.611Z,16.40
2023-09-20T17:12:17.375Z,16.40
2023-09-20T17:14:44.811Z,16.50
2023-09-20T17:17:13.661Z,16.50
2023-09-20T17:19:41.628Z,16.40
2023-09-20T17:22:09.104Z,16.40
2023-09-20T17:24:36.748Z,16.40
2023-09-20T17:27:15.497Z,16.40
2023-09-20T17:29:50.663Z,16.50
2023-09-20T17:32:18.420Z,16.50
2023-09-20T17:34:45.718Z,16.50
2023-09-20T17:37:13.327Z,16.50
2023-09-20T17:39:40.768Z,16.60
2023-09-20T17:42:09.275Z,16.60
2023-09-20T17:44:36.936Z,16.60
2023-09-20T17:47:04.633Z,16.70
2023-09-20T17:49:31.954Z,16.70
2023-09-20T17:51:59.466Z,16.60
2023-09-20T17:54:28.313Z,16.60
2023-09-20T17:56:58.571Z,16.60
2023-09-20T17:59:26.455Z,16.50
2023-09-20T18:01:54.520Z,16.50
2023-09-20T18:04:23.195Z,16.50
2023-09-20T18:06:50.635Z,16.50
2023-09-20T18:09:18.097Z,16.40
2023-09-20T18:11:47.243Z,16.40
2023-09-20T18:14:15.410Z,16.30
2023-09-20T18:16:47.782Z,16.20
2023-09-20T18:19:18.654Z,16.10
2023-09-20T18:21:46.702Z,16.00
2023-09-20T18:24:14.462Z,15.90
2023-09-20T18:26:42.472Z,15.90
2023-09-20T18:29:09.777Z,15.90
2023-09-20T18:31:38.356Z,15.90
2023-09-20T18:34:06.156Z,15.90
2023-09-20T18:36:35.499Z,16.00
2023-09-20T18:39:04.263Z,16.00
2023-09-20T18:41:32.106Z,16.00
2023-09-20T18:44:00.255Z,16.00
2023-09-20T18:46:31.870Z,16.10
2023-09-20T18:49:01.077Z,16.10
2023-09-20T18:51:30.157Z,16.00
2023-09-20T18:54:01.505Z,16.10
2023-09-20T18:56:29.773Z,16.00
2023-09-20T18:58:59.534Z,16.00
2023-09-20T19:01:27.058Z,15.90
2023-09-20T19:03:57.372Z,15.90
2023-09-20T19:06:25.728Z,16.00
2023-09-20T19:08:54.716Z,15.90
2023-09-20T19:11:27.186Z,15.90
2023-09-20T19:13:55.132Z,15.90
2023-09-20T19:16:24.393Z,15.90
2023-09-20T19:19:00.023Z,15.80
2023-09-20T19:21:32.267Z,15.80
2023-09-20T19:24:00.330Z,15.70
2023-09-20T19:26:28.326Z,15.70
2023-09-20T19:28:56.957Z,15.80
2023-09-20T19:31:25.091Z,15.70
2023-09-20T19:33:53.771Z,15.70
2023-09-20T19:36:21.422Z,15.60
2023-09-20T19:38:53.841Z,15.60
2023-09-20T19:41:21.397Z,15.60
2023-09-20T19:43:48.583Z,15.60
2023-09-20T19:46:17.568Z,15.50
2023-09-20T19:48:45.698Z,15.60
2023-09-20T19:51:13.890Z,15.60
2023-09-20T19:53:43.900Z,15.60
2023-09-20T19:56:18.832Z,15.60
2023-09-20T19:58:47.492Z,15.60
2023-09-20T20:01:16.693Z,15.50
2023-09-20T20:03:45.620Z,15.50
2023-09-20T20:06:17.445Z,15.50
2023-09-20T20:08:45.665Z,15.50
2023-09-20T20:11:14.124Z,15.60
2023-09-20T20:13:43.762Z,15.70
2023-09-20T20:16:15.719Z,15.70
2023-09-20T20:18:45.383Z,15.80
2023-09-20T20:21:16.431Z,15.80
2023-09-20T20:23:45.621Z,15.80
2023-09-20T20:26:12.918Z,15.70
2023-09-20T20:28:42.028Z,15.70
2023-09-20T20:31:12.158Z,15.60
2023-09-20T20:33:39.894Z,15.60
2023-09-20T20:36:13.921Z,15.50
2023-09-20T20:38:42.335Z,15.40
2023-09-20T20:41:10.561Z,15.30
2023-09-20T20:43:41.219Z,15.30
2023-09-20T20:46:18.469Z,15.30
2023-09-20T20:48:46.631Z,15.30
2023-09-20T20:51:19.578Z,15.30
2023-09-20T20:53:49.677Z,15.30
2023-09-20T20:56:19.756Z,15.30
2023-09-20T20:58:51.303Z,15.40
2023-09-20T21:01:20.249Z,15.50
2023-09-20T21:03:50.362Z,15.60
2023-09-20T21:06:19.373Z,15.70
2023-09-20T21:08:48.792Z,15.70
2023-09-20T21:11:19.651Z,15.80
2023-09-20T21:13:47.733Z,15.90
2023-09-20T21:16:16.731Z,16.00
2023-09-20T21:18:45.168Z,16.00
2023-09-20T21:21:13.374Z,16.00
2023-09-20T21:23:44.155Z,16.10
2023-09-20T21:26:11.688Z,16.10
2023-09-20T21:28:41.704Z,16.20
2023-09-20T21:31:16.131Z,16.30
2023-09-20T21:33:48.489Z,16.30
2023-09-20T21:36:16.191Z,16.30
2023-09-20T21:38:43.718Z,16.30
2023-09-20T21:41:12.626Z,16.40
2023-09-20T21:43:41.661Z,16.40
2023-09-20T21:46:08.873Z,16.40
2023-09-20T21:48:36.490Z,16.50
2023-09-20T21:51:05.019Z,16.40
2023-09-20T21:53:34.220Z,16.50
2023-09-20T21:56:02.574Z,16.40
2023-09-20T21:58:30.122Z,16.40
2023-09-20T22:00:57.802Z,16.40
2023-09-20T22:03:28.473Z,16.40
2023-09-20T22:05:56.619Z,16.40
2023-09-20T22:08:25.609Z,16.20
2023-09-20T22:10:58.311Z,16.20
2023-09-20T22:13:26.462Z,16.30
2023-09-20T22:15:53.897Z,16.30
2023-09-20T22:18:21.684Z,16.30
2023-09-20T22:20:57.511Z,16.30
2023-09-20T22:23:30.041Z,16.20
2023-09-20T22:25:59.548Z,16.10
2023-09-20T22:28:28.374Z,16.10
2023-09-20T22:30:55.734Z,16.10
2023-09-20T22:33:23.184Z,16.10
2023-09-20T22:36:04.168Z,16.10
2023-09-20T22:38:38.847Z,16.00
2023-09-20T22:41:06.068Z,16.00
2023-09-20T22:43:34.183Z,15.90
2023-09-20T22:46:01.410Z,16.00
2023-09-20T22:48:29.695Z,15.90
2023-09-20T22:50:57.682Z,15.90
2023-09-20T22:53:25.430Z,16.00
2023-09-20T22:55:53.354Z,16.00
2023-09-20T22:58:22.181Z,15.90
2023-09-20T23:00:50.910Z,15.80
2023-09-20T23:03:22.025Z,15.80
2023-09-20T23:05:53.185Z,15.70
2023-09-20T23:08:20.844Z,15.80
2023-09-20T23:10:53.776Z,15.70
2023-09-20T23:13:26.838Z,15.70
2023-09-20T23:15:54.802Z,15.70
2023-09-20T23:18:24.348Z,15.70
2023-09-20T23:20:53.932Z,15.70
2023-09-20T23:23:26.163Z,15.70
2023-09-20T23:25:55.048Z,15.60
2023-09-20T23:28:24.914Z,15.60
2023-09-20T23:30:59.600Z,15.60
2023-09-20T23:33:37.287Z,15.50
2023-09-20T23:36:06.044Z,15.50
2023-09-20T23:38:39.481Z,15.50
2023-09-20T23:41:18.767Z,15.50
2023-09-20T23:43:47.429Z,15.50
2023-09-20T23:46:23.291Z,15.40
2023-09-20T23:48:52.456Z,15.50
2023-09-20T23:51:21.349Z,15.30
2023-09-20T23:53:50.310Z,15.40
2023-09-20T23:56:18.974Z,15.30
2023-09-20T23:58:47.552Z,15.30
